ADDS METAR Data

Data at: 1829 UTC 20 Jul 2018

METAR for:KPVD (Providence/Green Mem, RI, US)
Text:KPVD 201751Z 14006KT 10SM FEW050 28/12 A3016 RMK AO2 SLP214 T02830117 10283 20211 58007
Temperature: 28.3°C ( 83°F)
Dewpoint: 11.7°C ( 53°F) [RH = 36%]
Pressure (altimeter):30.16 inches Hg (1021.4 mb) [Sea level pressure: 1021.4 mb]
Winds:from the SE (140 degrees) at 7 MPH (6 knots; 3.1 m/s)
Visibility:10 or more sm (16+ km)
Ceiling:at least 12,000 feet AGL
Clouds: few clouds at 5000 feet AGL